Time;durP1;ratioP1;P1;durP2;ratioP2;P2;SDS_P1;SDS_P2;PMS_P1;PMS_P2;Temp;Humidity;BMP_temperature;BMP_pressure;BME280_temperature;BME280_humidity;BME280_pressure;Samples;Min_cycle;Max_cycle;Signal;HPM_P1;HPM_P2
2021/10/06 04:17:15;;;;;;;0.30;0.30;;;;;;;10.93;84.14;98839.63;5117976;23;20519;-76
2021/10/06 04:19:41;;;;;;;0.30;0.30;;;;;;;10.78;85.41;98840.75;4996173;28;20030;-76
2021/10/06 04:22:06;;;;;;;0.20;0.20;;;;;;;10.75;83.67;98845.13;4996149;28;20034;-76
2021/10/06 04:24:31;;;;;;;0.30;0.30;;;;;;;10.72;86.10;98839.97;4996257;28;20069;-76
2021/10/06 04:26:57;;;;;;;0.30;0.30;;;;;;;10.71;87.08;98846.06;4995848;28;20029;-76
2021/10/06 04:31:50;;;;;;;0.20;0.20;;;;;;;10.73;82.75;98852.06;4987003;28;20399;-71
2021/10/06 04:34:15;;;;;;;0.20;0.20;;;;;;;10.66;84.03;98851.31;4994164;28;20026;-72
2021/10/06 04:36:42;;;;;;;0.55;0.55;;;;;;;10.63;83.80;98855.69;4986586;28;20489;-72
2021/10/06 04:39:07;;;;;;;0.40;0.40;;;;;;;10.69;83.29;98855.59;4995437;28;20411;-72
2021/10/06 04:41:33;;;;;;;0.38;0.38;;;;;;;10.70;82.15;98849.53;4989986;28;20033;-71
2021/10/06 04:43:58;;;;;;;0.30;0.30;;;;;;;10.71;81.39;98853.81;4984199;28;20022;-72
2021/10/06 04:46:24;;;;;;;0.25;0.25;;;;;;;10.70;81.50;98852.13;4990902;28;20510;-72
2021/10/06 04:48:49;;;;;;;0.45;0.45;;;;;;;10.71;82.06;98854.69;4988397;28;20035;-73
2021/10/06 04:51:14;;;;;;;0.30;0.30;;;;;;;10.68;81.55;98856.47;4990033;28;20498;-73
2021/10/06 04:53:40;;;;;;;0.95;0.95;;;;;;;10.67;80.98;98858.19;4986280;28;20101;-74
2021/10/06 04:56:05;;;;;;;0.50;0.50;;;;;;;10.67;80.89;98854.75;4985607;28;20027;-73
2021/10/06 04:58:31;;;;;;;0.50;0.50;;;;;;;10.64;80.72;98853.09;4985848;28;20919;-72
2021/10/06 05:00:56;;;;;;;0.30;0.30;;;;;;;10.65;80.97;98856.53;4985048;28;20109;-73
2021/10/06 05:03:21;;;;;;;0.40;0.40;;;;;;;10.69;80.74;98860.78;4986374;28;20418;-73
2021/10/06 05:05:47;;;;;;;0.40;0.40;;;;;;;10.66;80.16;98861.69;4982504;28;20423;-73
2021/10/06 05:08:12;;;;;;;0.38;0.38;;;;;;;10.69;81.26;98872.00;4987996;28;20064;-73
2021/10/06 05:10:38;;;;;;;1.05;1.05;;;;;;;10.75;80.25;98873.63;4984708;28;20019;-72
2021/10/06 05:13:03;;;;;;;0.30;0.30;;;;;;;10.74;81.03;98874.53;4985521;28;20019;-72
2021/10/06 05:15:29;;;;;;;0.20;0.20;;;;;;;10.78;80.90;98868.38;4979384;28;20483;-72
2021/10/06 05:17:54;;;;;;;0.30;0.30;;;;;;;10.71;80.16;98871.97;4985457;28;20419;-72
2021/10/06 05:20:20;;;;;;;0.28;0.28;;;;;;;10.59;81.27;98879.94;4984388;28;20018;-73
2021/10/06 05:22:45;;;;;;;0.32;0.32;;;;;;;10.68;80.68;98884.97;4988057;28;20026;-72
2021/10/06 05:25:11;;;;;;;0.25;0.25;;;;;;;10.66;80.62;98886.75;4982237;28;20117;-73
2021/10/06 05:27:36;;;;;;;0.30;0.30;;;;;;;10.59;82.41;98891.19;4987092;28;20058;-72
2021/10/06 05:30:05;;;;;;;0.30;0.30;;;;;;;10.53;81.87;98897.28;4981370;28;20033;-72
2021/10/06 05:32:30;;;;;;;0.23;0.23;;;;;;;10.54;81.25;98893.00;4988538;28;20525;-72
2021/10/06 05:34:56;;;;;;;0.30;0.30;;;;;;;10.53;82.37;98899.88;4985949;28;20109;-72
2021/10/06 05:37:21;;;;;;;0.25;0.25;;;;;;;10.61;81.61;98904.09;4985493;28;20065;-72
2021/10/06 05:39:46;;;;;;;1.85;0.55;;;;;;;10.60;81.04;98897.22;4982944;28;20034;-72
2021/10/06 05:42:12;;;;;;;0.20;0.20;;;;;;;10.57;81.71;98897.25;4984597;28;20065;-72
2021/10/06 05:44:37;;;;;;;0.30;0.30;;;;;;;10.47;81.54;98902.56;4982069;28;20033;-73
2021/10/06 05:47:02;;;;;;;0.65;0.65;;;;;;;10.52;81.17;98908.53;4980749;28;20023;-72
2021/10/06 05:49:28;;;;;;;0.30;0.30;;;;;;;10.55;81.86;98900.72;4984973;28;20034;-73
2021/10/06 05:51:53;;;;;;;0.52;0.52;;;;;;;10.51;82.33;98908.56;4979342;28;20105;-72
2021/10/06 05:54:18;;;;;;;0.30;0.30;;;;;;;10.51;81.38;98909.41;4985568;28;20104;-72
2021/10/06 05:56:44;;;;;;;0.28;0.28;;;;;;;10.50;81.95;98910.31;4987142;28;20104;-73
2021/10/06 05:59:09;;;;;;;0.30;0.30;;;;;;;10.55;81.01;98916.28;4987715;28;20104;-72
2021/10/06 06:01:35;;;;;;;0.38;0.38;;;;;;;10.54;80.37;98914.56;4979875;28;20042;-72
2021/10/06 06:04:00;;;;;;;0.35;0.35;;;;;;;10.59;80.36;98916.19;4986881;28;20022;-73
2021/10/06 06:06:25;;;;;;;0.30;0.30;;;;;;;10.54;81.18;98919.75;4981718;28;20022;-73
2021/10/06 06:08:51;;;;;;;0.40;0.40;;;;;;;10.57;81.27;98923.16;4988370;28;20029;-73
2021/10/06 06:11:16;;;;;;;0.30;0.30;;;;;;;10.54;80.55;98922.34;4985336;28;20026;-72
2021/10/06 06:13:42;;;;;;;2.63;0.93;;;;;;;10.55;79.59;98931.81;4986833;28;20026;-73
2021/10/06 06:16:07;;;;;;;0.50;0.50;;;;;;;10.57;79.77;98929.19;4982970;28;20026;-72
2021/10/06 06:18:32;;;;;;;0.30;0.30;;;;;;;10.59;80.48;98932.63;4981156;28;20023;-72
2021/10/06 06:20:58;;;;;;;0.30;0.30;;;;;;;10.59;80.41;98932.63;4985062;28;20149;-73
2021/10/06 06:23:23;;;;;;;0.35;0.35;;;;;;;10.65;80.09;98947.22;4980394;28;20035;-72
2021/10/06 06:25:50;;;;;;;0.90;0.90;;;;;;;10.67;79.51;98940.28;4982927;28;20019;-73
2021/10/06 06:28:16;;;;;;;0.20;0.20;;;;;;;10.63;79.58;98943.78;4979756;28;20085;-72
2021/10/06 06:30:42;;;;;;;0.40;0.40;;;;;;;10.76;79.56;98947.91;4988605;28;20494;-73
2021/10/06 06:33:07;;;;;;;1.05;1.05;;;;;;;10.75;79.85;98951.38;4979194;28;20021;-73
2021/10/06 06:35:32;;;;;;;0.30;0.30;;;;;;;10.86;79.81;98951.19;4985780;28;20084;-73
2021/10/06 06:37:58;;;;;;;0.40;0.40;;;;;;;10.85;78.87;98949.50;4982556;28;20026;-72
2021/10/06 06:40:23;;;;;;;6.55;1.23;;;;;;;10.96;78.89;98950.16;4982777;28;20085;-72
2021/10/06 06:42:49;;;;;;;2.53;1.27;;;;;;;11.00;78.29;98952.69;4985968;28;20041;-72
2021/10/06 06:45:14;;;;;;;0.55;0.55;;;;;;;10.98;78.19;98959.63;4983545;28;20050;-72
2021/10/06 06:47:41;;;;;;;0.20;0.20;;;;;;;11.02;78.28;98958.72;4977823;28;20029;-73
2021/10/06 06:50:07;;;;;;;0.52;0.52;;;;;;;11.13;77.84;98944.69;4984184;28;20487;-73
2021/10/06 06:52:32;;;;;;;0.35;0.35;;;;;;;11.05;77.10;98950.84;4982987;28;20041;-72
2021/10/06 06:54:58;;;;;;;0.47;0.47;;;;;;;11.21;77.36;98955.78;4987848;28;20022;-72
2021/10/06 06:57:25;;;;;;;0.57;0.57;;;;;;;11.28;76.33;98954.81;4985362;28;20026;-73
2021/10/06 06:59:50;;;;;;;0.20;0.20;;;;;;;11.41;74.85;98963.19;4985776;28;20402;-73
2021/10/06 07:02:15;;;;;;;0.30;0.30;;;;;;;11.30;75.25;98968.59;4982468;28;20097;-73
2021/10/06 07:04:41;;;;;;;0.30;0.30;;;;;;;11.40;75.74;98975.31;4982509;28;20022;-74
2021/10/06 07:07:06;;;;;;;0.30;0.30;;;;;;;11.54;75.15;98978.50;4984098;28;20023;-73
2021/10/06 07:09:35;;;;;;;0.45;0.45;;;;;;;11.59;74.96;98981.03;4981562;28;20034;-73
2021/10/06 07:12:00;;;;;;;0.30;0.30;;;;;;;11.65;74.90;98985.25;4984783;28;20022;-73
2021/10/06 07:14:26;;;;;;;2.00;0.90;;;;;;;11.71;73.50;98986.00;4979619;28;20472;-73
2021/10/06 07:16:51;;;;;;;0.20;0.20;;;;;;;11.82;73.32;98984.06;4987025;28;20121;-74
2021/10/06 07:19:16;;;;;;;0.20;0.20;;;;;;;11.74;72.76;98998.03;4976902;28;20069;-74
2021/10/06 07:21:45;;;;;;;0.60;0.60;;;;;;;11.94;72.69;98992.50;4983140;28;20022;-73
2021/10/06 07:24:14;;;;;;;0.20;0.20;;;;;;;11.79;72.51;99002.25;4976427;28;20030;-73
2021/10/06 07:26:41;;;;;;;0.45;0.45;;;;;;;11.73;73.28;99004.13;4985961;28;20026;-73
2021/10/06 07:29:08;;;;;;;0.40;0.40;;;;;;;11.68;73.11;99011.16;4983899;28;20299;-73
2021/10/06 07:31:34;;;;;;;2.25;1.90;;;;;;;11.63;73.26;99012.97;4983860;28;20518;-73
2021/10/06 07:34:00;;;;;;;0.20;0.20;;;;;;;11.56;72.44;99013.09;4985175;28;20050;-73
2021/10/06 07:36:25;;;;;;;0.20;0.20;;;;;;;11.63;72.97;99020.75;4983087;28;20082;-74
2021/10/06 07:38:55;;;;;;;0.30;0.30;;;;;;;11.71;72.04;99018.88;4982021;28;20035;-73
2021/10/06 07:41:20;;;;;;;0.20;0.20;;;;;;;12.13;72.08;99019.81;4982383;28;20473;-72
2021/10/06 07:43:46;;;;;;;0.30;0.30;;;;;;;12.39;69.51;99027.06;4972606;28;20109;-72
2021/10/06 07:46:11;;;;;;;0.20;0.20;;;;;;;13.00;68.81;99025.66;4978692;28;20019;-73
2021/10/06 07:48:38;;;;;;;4.18;0.75;;;;;;;13.00;67.90;99024.81;4979263;28;20110;-72
2021/10/06 07:51:03;;;;;;;0.20;0.20;;;;;;;13.25;66.83;99032.94;4985764;28;20399;-71
2021/10/06 07:53:29;;;;;;;0.20;0.20;;;;;;;13.42;65.47;99035.97;4987927;28;20033;-72
2021/10/06 07:55:54;;;;;;;0.20;0.20;;;;;;;14.00;63.41;99031.81;4982752;28;20042;-72
2021/10/06 07:58:19;;;;;;;0.20;0.20;;;;;;;14.19;62.90;99032.16;4986141;28;20038;-72
2021/10/06 08:00:45;;;;;;;0.20;0.20;;;;;;;16.28;58.42;99026.22;4980762;28;20027;-72
2021/10/06 08:03:10;;;;;;;0.63;0.63;;;;;;;18.46;49.31;99026.78;4988018;28;20022;-72
2021/10/06 08:05:35;;;;;;;0.20;0.20;;;;;;;19.16;46.25;99026.09;4980451;28;20030;-72
2021/10/06 08:08:00;;;;;;;0.20;0.20;;;;;;;17.32;48.89;99043.13;4982785;28;20031;-72
2021/10/06 08:10:26;;;;;;;0.20;0.20;;;;;;;15.41;54.79;99048.41;4983083;28;20025;-72
2021/10/06 08:12:51;;;;;;;1.58;0.95;;;;;;;14.78;58.19;99053.03;4982039;28;20034;-72
2021/10/06 08:15:16;;;;;;;0.73;0.73;;;;;;;14.57;59.64;99051.91;4978923;28;20049;-72
2021/10/06 08:17:42;;;;;;;0.22;0.22;;;;;;;13.89;61.66;99055.56;4983691;28;20487;-72
2021/10/06 08:20:08;;;;;;;0.20;0.20;;;;;;;13.41;63.61;99057.69;4979056;28;20023;-72
2021/10/06 08:22:34;;;;;;;0.20;0.20;;;;;;;13.38;64.39;99065.56;4979481;28;20024;-72
2021/10/06 08:24:59;;;;;;;0.28;0.28;;;;;;;13.46;63.50;99055.81;4983132;28;20528;-71
2021/10/06 08:27:24;;;;;;;0.30;0.30;;;;;;;13.50;62.33;99060.06;4982030;28;20031;-71
2021/10/06 08:29:50;;;;;;;1.55;0.60;;;;;;;13.59;63.13;99062.44;4980276;28;20035;-71
2021/10/06 08:32:15;;;;;;;0.10;0.10;;;;;;;13.42;62.56;99066.34;4980333;28;20069;-71
2021/10/06 08:34:41;;;;;;;16.15;0.85;;;;;;;13.65;62.29;99057.97;4984797;28;20030;-71
2021/10/06 08:37:06;;;;;;;1.13;1.02;;;;;;;14.41;61.13;99063.69;4979054;28;20483;-71
2021/10/06 08:39:31;;;;;;;0.20;0.20;;;;;;;15.16;58.84;99070.09;4982739;28;20062;-71
2021/10/06 08:41:57;;;;;;;0.20;0.20;;;;;;;16.35;54.50;99066.94;4982442;28;20470;-71
2021/10/06 08:44:30;;;;;;;0.15;0.15;;;;;;;15.66;54.02;99065.00;4982775;28;20023;-72
2021/10/06 08:46:55;;;;;;;5.28;0.45;;;;;;;14.96;56.25;99077.69;4978441;28;20029;-71
2021/10/06 08:49:21;;;;;;;0.57;0.57;;;;;;;14.28;58.38;99064.91;4986202;28;20023;-71
2021/10/06 08:51:46;;;;;;;1.35;1.25;;;;;;;14.03;59.41;99076.03;4986392;28;20054;-70
2021/10/06 08:54:11;;;;;;;0.20;0.20;;;;;;;13.91;59.96;99073.75;4988676;28;20037;-71
2021/10/06 08:56:37;;;;;;;0.60;0.60;;;;;;;13.71;60.64;99079.47;4988760;28;20030;-71
2021/10/06 08:59:03;;;;;;;0.25;0.25;;;;;;;13.39;61.56;99085.47;4986568;28;20390;-70
2021/10/06 09:01:30;;;;;;;0.10;0.10;;;;;;;13.24;65.25;99085.84;4984875;28;20077;-71
2021/10/06 09:03:58;;;;;;;0.30;0.30;;;;;;;13.22;68.11;99093.69;4981303;28;20061;-72
2021/10/06 09:06:42;;;;;;;0.10;0.10;;;;;;;13.09;72.67;99097.44;4982318;28;20018;-72
2021/10/06 09:09:19;;;;;;;3.20;1.10;;;;;;;12.89;73.55;99105.69;4986155;28;20037;-71
2021/10/06 09:11:47;;;;;;;0.80;0.80;;;;;;;12.44;77.24;99111.00;4990455;28;20031;-72
2021/10/06 09:14:13;;;;;;;0.65;0.65;;;;;;;11.80;82.75;99104.38;4978774;28;20054;-72
2021/10/06 09:16:40;;;;;;;0.85;0.85;;;;;;;11.24;84.04;99113.94;4985258;28;20019;-71
2021/10/06 09:19:06;;;;;;;0.40;0.40;;;;;;;11.00;89.22;99109.97;4983466;28;20018;-71
2021/10/06 09:21:36;;;;;;;1.20;0.95;;;;;;;10.89;89.91;99104.97;4985545;28;20062;-71
2021/10/06 09:24:03;;;;;;;6.93;0.82;;;;;;;11.05;89.47;99110.78;4980772;28;20026;-71
2021/10/06 09:26:28;;;;;;;0.38;0.38;;;;;;;10.98;87.28;99111.75;4987326;28;20488;-71
2021/10/06 09:28:53;;;;;;;0.32;0.32;;;;;;;11.34;87.22;99118.13;4986875;28;20077;-71
2021/10/06 09:31:23;;;;;;;0.30;0.30;;;;;;;11.89;83.59;99109.41;4985756;28;20117;-71
2021/10/06 09:33:57;;;;;;;0.35;0.35;;;;;;;12.58;83.31;99101.16;4986830;28;20074;-71
2021/10/06 09:36:28;;;;;;;1.30;1.17;;;;;;;13.03;76.87;99108.84;4984817;28;20049;-71
2021/10/06 09:38:53;;;;;;;1.83;1.73;;;;;;;13.48;78.69;99111.28;4985725;28;20480;-71
2021/10/06 09:41:29;;;;;;;0.32;0.32;;;;;;;14.09;76.58;99114.94;4985087;28;20076;-71
2021/10/06 09:44:06;;;;;;;0.13;0.13;;;;;;;16.31;61.62;99104.56;4987782;28;20089;-71
2021/10/06 09:47:01;;;;;;;0.30;0.30;;;;;;;18.91;55.90;99105.22;4977653;28;20054;-71
2021/10/06 09:49:30;;;;;;;3.08;2.53;;;;;;;21.94;46.41;99088.34;4987023;28;20117;-71
2021/10/06 09:52:16;;;;;;;1.13;0.57;;;;;;;19.97;46.99;99113.25;4985795;28;20018;-72
2021/10/06 09:54:59;;;;;;;0.35;0.20;;;;;;;19.07;49.37;99115.84;4982987;28;20039;-72
2021/10/06 09:57:35;;;;;;;0.10;0.10;;;;;;;17.47;53.79;99121.09;4985539;28;20030;-72
2021/10/06 10:00:00;;;;;;;5.57;1.98;;;;;;;16.67;55.68;99124.13;4981357;28;20027;-71
2021/10/06 10:02:26;;;;;;;0.50;0.50;;;;;;;15.35;59.24;99137.38;4983645;28;20022;-71
2021/10/06 10:04:56;;;;;;;1.17;1.08;;;;;;;14.96;61.70;99129.88;4980988;28;20041;-71
2021/10/06 10:07:22;;;;;;;0.10;0.10;;;;;;;14.56;61.96;99128.44;4984896;28;20037;-71
2021/10/06 10:09:51;;;;;;;1.35;0.95;;;;;;;14.93;62.92;99129.97;4981772;28;20057;-71
2021/10/06 10:12:19;;;;;;;0.43;0.30;;;;;;;14.90;61.94;99130.06;4987946;28;20050;-71
2021/10/06 10:14:44;;;;;;;0.20;0.20;;;;;;;15.23;59.73;99122.97;4986893;28;20076;-70
2021/10/06 10:17:10;;;;;;;0.20;0.20;;;;;;;14.96;59.69;99127.28;4985666;28;20031;-71
2021/10/06 10:19:35;;;;;;;1.02;0.50;;;;;;;14.59;62.90;99136.16;4984568;28;20028;-70
2021/10/06 10:22:05;;;;;;;0.80;0.57;;;;;;;14.27;62.09;99138.81;4982882;28;20014;-73
2021/10/06 10:24:41;;;;;;;0.20;0.20;;;;;;;13.98;64.77;99137.81;4980778;28;20026;-72
2021/10/06 10:27:08;;;;;;;0.20;0.20;;;;;;;13.66;65.61;99146.44;4982824;28;20081;-71
2021/10/06 10:29:52;;;;;;;1.30;0.57;;;;;;;13.45;68.92;99158.25;4988020;28;20476;-71
2021/10/06 10:32:24;;;;;;;0.35;0.35;;;;;;;13.00;76.21;99176.53;4981233;28;20026;-72
2021/10/06 10:35:01;;;;;;;3.47;1.00;;;;;;;11.77;82.90;99192.69;4977978;28;20031;-71
2021/10/06 10:37:45;;;;;;;0.25;0.25;;;;;;;10.98;86.45;99215.47;4979463;28;20122;-71
2021/10/06 10:40:29;;;;;;;4.38;1.13;;;;;;;10.95;90.14;99216.34;4984149;28;20027;-71
2021/10/06 10:42:56;;;;;;;0.30;0.30;;;;;;;10.62;89.63;99211.56;4989587;28;20022;-70
2021/10/06 10:45:42;;;;;;;0.63;0.63;;;;;;;10.65;91.86;99198.59;4979926;28;20027;-71
2021/10/06 10:48:13;;;;;;;0.85;0.80;;;;;;;10.82;91.61;99196.63;4986259;28;20014;-71
2021/10/06 10:50:41;;;;;;;0.50;0.50;;;;;;;11.16;91.09;99193.59;4978169;28;20353;-71
2021/10/06 10:53:07;;;;;;;0.40;0.40;;;;;;;11.34;89.45;99182.97;4987007;28;20065;-72
2021/10/06 10:55:58;;;;;;;0.30;0.30;;;;;;;11.45;86.43;99175.03;4977153;28;20271;-71
2021/10/06 10:58:31;;;;;;;0.30;0.30;;;;;;;11.72;83.87;99178.94;4983656;28;20027;-71
2021/10/06 11:01:01;;;;;;;0.30;0.30;;;;;;;13.36;79.60;99171.47;4985481;28;20026;-70
2021/10/06 11:03:27;;;;;;;0.20;0.20;;;;;;;17.58;64.98;99160.78;4978573;28;20023;-72
2021/10/06 11:05:53;;;;;;;0.20;0.20;;;;;;;19.95;57.87;99159.81;4983977;28;20031;-72
2021/10/06 11:08:37;;;;;;;0.15;0.15;;;;;;;22.30;46.46;99157.47;4980926;28;20029;-72
2021/10/06 11:11:12;;;;;;;0.52;0.52;;;;;;;19.46;49.40;99173.53;4980639;28;20025;-72
2021/10/06 11:13:45;;;;;;;0.47;0.30;;;;;;;18.00;53.22;99175.72;4986769;28;20045;-70
2021/10/06 11:16:11;;;;;;;0.10;0.10;;;;;;;18.87;52.72;99171.09;4990047;28;20494;-71
2021/10/06 11:18:51;;;;;;;0.00;0.00;;;;;;;18.38;57.43;99168.84;4981931;28;20031;-72
2021/10/06 11:21:37;;;;;;;2.22;0.38;;;;;;;17.13;59.86;99164.31;4986896;28;20030;-71
2021/10/06 11:24:20;;;;;;;0.10;0.10;;;;;;;16.03;63.96;99177.88;4990184;28;20034;-72
2021/10/06 11:26:47;;;;;;;0.10;0.10;;;;;;;14.27;66.77;99173.53;4982688;28;20065;-70
2021/10/06 11:29:12;;;;;;;0.10;0.10;;;;;;;13.66;66.45;99174.22;4989322;28;20510;-70
2021/10/06 11:31:40;;;;;;;0.10;0.10;;;;;;;13.55;65.74;99180.56;4982257;28;20144;-72
2021/10/06 11:34:16;;;;;;;0.20;0.20;;;;;;;13.56;67.66;99173.59;4986462;28;20055;-72
2021/10/06 11:36:49;;;;;;;0.10;0.10;;;;;;;13.65;67.46;99170.78;4979339;28;20046;-72
2021/10/06 11:39:14;;;;;;;0.10;0.10;;;;;;;13.65;69.10;99175.13;4988358;28;20097;-72
2021/10/06 11:41:48;;;;;;;0.10;0.10;;;;;;;14.15;68.04;99163.44;4984787;28;20030;-72
2021/10/06 11:44:16;;;;;;;22.63;1.42;;;;;;;15.36;63.72;99157.38;4985562;28;20054;-72
2021/10/06 11:46:42;;;;;;;0.20;0.20;;;;;;;16.42;60.09;99154.72;4985400;28;20088;-72
2021/10/06 11:49:08;;;;;;;0.65;0.65;;;;;;;16.74;58.98;99139.66;4985778;28;20022;-72
2021/10/06 11:51:41;;;;;;;1.10;0.55;;;;;;;20.08;54.76;99146.88;4982862;28;20034;-73
2021/10/06 11:54:06;;;;;;;0.00;0.00;;;;;;;21.72;45.92;99145.00;4980705;28;20026;-73
2021/10/06 11:56:32;;;;;;;0.65;0.43;;;;;;;21.44;50.58;99139.63;4982108;28;20026;-73
2021/10/06 11:59:32;;;;;;;0.10;0.10;;;;;;;22.71;45.56;99137.38;4982110;28;20068;-75
2021/10/06 12:02:05;;;;;;;0.00;0.00;;;;;;;23.59;41.85;99130.88;4979563;28;20030;-75
2021/10/06 12:04:54;;;;;;;0.00;0.00;;;;;;;18.98;51.24;99142.56;4982326;28;20058;-75
2021/10/06 12:07:23;;;;;;;0.10;0.10;;;;;;;17.28;58.45;99148.94;4982666;28;20416;-75
2021/10/06 12:09:57;;;;;;;0.00;0.00;;;;;;;18.27;53.08;99133.47;4983472;28;20387;-75
2021/10/06 12:12:25;;;;;;;0.17;0.17;;;;;;;18.05;52.65;99128.31;4986756;28;20081;-75
2021/10/06 12:15:02;;;;;;;0.13;0.13;;;;;;;17.42;51.86;99131.75;4984762;28;20027;-75
2021/10/06 12:17:31;;;;;;;1.88;0.38;;;;;;;17.27;58.67;99126.28;4982502;28;20030;-74
2021/10/06 12:20:00;;;;;;;0.10;0.10;;;;;;;18.19;55.62;99126.81;4982296;28;20076;-75
2021/10/06 12:22:37;;;;;;;0.10;0.10;;;;;;;15.93;57.27;99130.28;4984866;28;20165;-74
2021/10/06 12:25:10;;;;;;;0.52;0.50;;;;;;;16.06;58.45;99126.34;4983158;28;20064;-74
2021/10/06 12:27:38;;;;;;;0.70;0.47;;;;;;;16.86;60.93;99119.09;4987490;28;20025;-74
2021/10/06 12:30:15;;;;;;;1.40;0.40;;;;;;;16.67;59.19;99125.91;4986996;28;20030;-74
2021/10/06 12:32:43;;;;;;;0.20;0.20;;;;;;;16.46;58.30;99124.94;4984944;28;20026;-74
2021/10/06 12:35:13;;;;;;;0.10;0.10;;;;;;;15.78;62.08;99130.81;4983793;28;20387;-75
2021/10/06 12:37:50;;;;;;;;;;;;;;;15.63;64.88;99125.19;4981717;28;20117;-74
2021/10/06 12:40:31;;;;;;;0.75;0.55;;;;;;;15.32;61.69;99127.88;4979946;28;20296;-75
2021/10/06 12:43:23;;;;;;;0.20;0.20;;;;;;;15.52;61.25;99135.09;4988735;28;20034;-74
2021/10/06 12:46:08;;;;;;;0.80;0.20;;;;;;;15.03;63.30;99131.41;4977311;28;20098;-74
2021/10/06 12:48:53;;;;;;;0.20;0.20;;;;;;;14.38;68.33;99168.88;4987706;28;20049;-75
2021/10/06 12:51:26;;;;;;;0.20;0.20;;;;;;;13.56;67.69;99171.84;4986250;28;20034;-71
2021/10/06 12:54:06;;;;;;;0.20;0.20;;;;;;;12.78;70.14;99172.69;4983693;28;20029;-71
2021/10/06 12:56:41;;;;;;;0.20;0.20;;;;;;;11.95;76.28;99179.44;4989880;28;20078;-71
2021/10/06 12:59:09;;;;;;;0.20;0.20;;;;;;;11.79;77.09;99183.13;4985182;28;20107;-70
2021/10/06 13:01:36;;;;;;;0.28;0.28;;;;;;;12.00;74.60;99167.25;4987544;28;20022;-70
2021/10/06 13:04:09;;;;;;;0.30;0.30;;;;;;;12.26;76.38;99176.28;4979815;28;20033;-70
2021/10/06 13:06:35;;;;;;;0.30;0.30;;;;;;;12.38;73.96;99155.28;4985738;28;20030;-70
2021/10/06 13:09:04;;;;;;;0.30;0.30;;;;;;;12.66;71.00;99154.72;4988716;28;20097;-70
2021/10/06 13:11:30;;;;;;;0.20;0.20;;;;;;;13.06;71.16;99134.81;4987104;28;20034;-70
2021/10/06 13:13:55;;;;;;;0.20;0.20;;;;;;;13.59;72.45;99139.69;4981532;28;20391;-71
2021/10/06 13:16:21;;;;;;;0.45;0.43;;;;;;;14.74;65.82;99136.63;4984601;28;20311;-71
2021/10/06 13:18:46;;;;;;;0.15;0.15;;;;;;;15.05;71.79;99145.28;4985978;28;20030;-71
2021/10/06 13:21:13;;;;;;;0.85;0.85;;;;;;;15.11;68.72;99139.84;4987938;28;20070;-71
2021/10/06 13:23:39;;;;;;;0.35;0.35;;;;;;;15.10;62.25;99138.16;4987385;28;20034;-71
2021/10/06 13:26:07;;;;;;;0.20;0.20;;;;;;;15.01;62.05;99148.88;4986740;28;20372;-71
2021/10/06 13:28:34;;;;;;;0.28;0.28;;;;;;;15.13;63.25;99153.72;4982919;28;20373;-71
2021/10/06 13:30:59;;;;;;;0.40;0.40;;;;;;;14.86;61.86;99155.41;4983628;28;20033;-71
2021/10/06 13:33:25;;;;;;;0.20;0.20;;;;;;;14.97;59.46;99151.63;4985888;28;20038;-72
2021/10/06 13:35:51;;;;;;;0.20;0.20;;;;;;;15.19;64.85;99157.06;4979452;28;20439;-72
2021/10/06 13:38:16;;;;;;;0.20;0.20;;;;;;;15.39;60.95;99159.91;4984740;28;20117;-72
2021/10/06 13:40:42;;;;;;;0.20;0.20;;;;;;;15.54;57.19;99155.94;4979700;28;20085;-72
2021/10/06 13:43:07;;;;;;;3.88;2.38;;;;;;;15.65;59.67;99156.47;4992810;28;20022;-72
2021/10/06 13:45:32;;;;;;;0.40;0.40;;;;;;;15.50;56.76;99152.56;4977524;28;20073;-72
2021/10/06 13:47:58;;;;;;;0.22;0.22;;;;;;;15.31;59.17;99159.28;4990086;28;20061;-72
2021/10/06 13:50:23;;;;;;;0.30;0.30;;;;;;;15.41;59.56;99158.06;4980863;28;20023;-73
2021/10/06 13:52:49;;;;;;;0.17;0.17;;;;;;;15.47;59.30;99152.66;4988107;28;20022;-72
2021/10/06 13:55:15;;;;;;;0.20;0.20;;;;;;;15.91;60.96;99143.41;4984309;28;20125;-73
2021/10/06 13:57:40;;;;;;;0.10;0.10;;;;;;;16.12;62.65;99149.66;4988289;28;20503;-72
2021/10/06 14:00:08;;;;;;;0.28;0.28;;;;;;;16.37;58.26;99146.19;4981534;28;20022;-72
2021/10/06 14:02:34;;;;;;;0.10;0.10;;;;;;;16.45;60.05;99144.16;4984131;28;20096;-72
2021/10/06 14:05:00;;;;;;;0.10;0.10;;;;;;;15.83;56.62;99149.78;4984291;28;20022;-72
2021/10/06 14:07:25;;;;;;;0.45;0.45;;;;;;;15.37;58.50;99156.47;4981128;28;20082;-72
2021/10/06 14:09:52;;;;;;;0.20;0.20;;;;;;;15.29;61.83;99153.25;4983034;28;20027;-72
2021/10/06 14:12:18;;;;;;;0.10;0.10;;;;;;;15.60;65.38;99164.44;4985077;28;20113;-72
2021/10/06 14:14:44;;;;;;;0.20;0.20;;;;;;;15.31;59.50;99162.72;4982286;28;20396;-72
2021/10/06 14:17:09;;;;;;;0.32;0.32;;;;;;;15.10;59.28;99164.25;4983347;28;20026;-72
2021/10/06 14:19:35;;;;;;;0.10;0.10;;;;;;;15.04;65.50;99169.66;4988918;28;20504;-72
2021/10/06 14:22:00;;;;;;;0.17;0.17;;;;;;;14.82;59.93;99163.34;4984427;28;20093;-72
2021/10/06 14:24:25;;;;;;;0.20;0.20;;;;;;;14.85;57.91;99164.13;4987027;28;20448;-72
2021/10/06 14:26:51;;;;;;;0.20;0.20;;;;;;;14.92;58.82;99164.78;4983040;28;20019;-72
2021/10/06 14:29:16;;;;;;;0.20;0.20;;;;;;;15.06;58.82;99170.47;4984595;28;20026;-72
2021/10/06 14:31:41;;;;;;;0.22;0.22;;;;;;;15.08;59.40;99173.88;4979139;28;20046;-72
2021/10/06 14:34:07;;;;;;;0.32;0.32;;;;;;;14.70;58.38;99179.34;4985469;28;20105;-72
2021/10/06 14:36:35;;;;;;;0.75;0.68;;;;;;;14.69;59.30;99173.28;4977738;28;20062;-72
2021/10/06 14:39:01;;;;;;;0.10;0.10;;;;;;;14.76;59.99;99180.03;4980573;28;20025;-72
2021/10/06 14:41:27;;;;;;;0.43;0.43;;;;;;;14.74;63.37;99179.22;4981300;28;20019;-72
2021/10/06 14:43:52;;;;;;;0.20;0.20;;;;;;;14.59;58.89;99177.03;4986610;28;20031;-72
2021/10/06 14:46:18;;;;;;;0.20;0.20;;;;;;;14.37;60.27;99185.44;4985004;28;20088;-72
2021/10/06 14:48:43;;;;;;;0.20;0.20;;;;;;;14.12;58.60;99181.78;4982360;28;20026;-74
2021/10/06 14:51:08;;;;;;;0.20;0.20;;;;;;;14.02;58.58;99181.16;4988400;28;20113;-73
2021/10/06 14:53:34;;;;;;;0.30;0.30;;;;;;;13.89;61.68;99190.16;4980520;28;20041;-73
2021/10/06 14:55:59;;;;;;;0.47;0.47;;;;;;;14.01;61.38;99191.59;4982778;28;20021;-72
2021/10/06 14:58:25;;;;;;;0.30;0.30;;;;;;;14.10;62.22;99189.59;4981420;28;20030;-70
2021/10/06 15:00:52;;;;;;;0.22;0.22;;;;;;;14.30;61.62;99186.47;4982330;28;20022;-69
2021/10/06 15:03:18;;;;;;;0.20;0.20;;;;;;;14.43;59.70;99180.94;4977241;28;20062;-73
2021/10/06 15:05:43;;;;;;;0.10;0.10;;;;;;;14.45;59.80;99182.59;4984958;28;20062;-70
2021/10/06 15:08:09;;;;;;;0.20;0.20;;;;;;;14.26;59.53;99182.22;4981156;28;20027;-70
2021/10/06 15:10:37;;;;;;;0.10;0.10;;;;;;;14.21;60.63;99186.72;4982912;28;20105;-70
2021/10/06 15:13:07;;;;;;;0.20;0.20;;;;;;;13.98;59.50;99186.47;4984609;28;20026;-73
2021/10/06 15:15:33;;;;;;;0.20;0.20;;;;;;;13.93;60.44;99185.72;4982923;28;20038;-73
2021/10/06 15:18:00;;;;;;;0.20;0.20;;;;;;;13.82;61.06;99194.63;4985063;28;20077;-73
2021/10/06 15:20:26;;;;;;;0.35;0.35;;;;;;;13.78;61.24;99192.16;4983704;28;20393;-74
2021/10/06 15:22:51;;;;;;;0.20;0.20;;;;;;;13.84;61.78;99197.22;4981780;28;20019;-74
2021/10/06 15:25:17;;;;;;;0.20;0.20;;;;;;;13.69;62.76;99203.66;4982721;28;20030;-74
2021/10/06 15:27:42;;;;;;;0.63;0.63;;;;;;;13.40;62.35;99203.50;4982736;28;20049;-72
2021/10/06 15:30:10;;;;;;;0.20;0.20;;;;;;;13.24;63.87;99196.00;4980479;28;20037;-71
2021/10/06 15:32:39;;;;;;;0.28;0.28;;;;;;;13.45;63.43;99196.44;4978332;28;20530;-74
2021/10/06 15:35:09;;;;;;;0.30;0.30;;;;;;;13.33;63.67;99198.41;4979810;28;20027;-72
2021/10/06 15:37:36;;;;;;;0.30;0.30;;;;;;;12.86;64.81;99214.97;4984745;28;20026;-70
2021/10/06 15:40:04;;;;;;;0.30;0.30;;;;;;;12.92;65.55;99220.09;4978291;28;20142;-75
2021/10/06 15:42:29;;;;;;;0.43;0.43;;;;;;;12.86;65.92;99210.66;4983285;28;20025;-74
2021/10/06 15:44:55;;;;;;;2.25;1.65;;;;;;;12.95;65.94;99220.00;4985422;28;20390;-73
2021/10/06 15:47:23;;;;;;;0.30;0.30;;;;;;;12.95;66.92;99220.00;4985527;28;20474;-71
2021/10/06 15:49:48;;;;;;;0.30;0.30;;;;;;;12.91;65.94;99228.78;4982798;28;20105;-74
2021/10/06 15:52:14;;;;;;;0.68;0.60;;;;;;;12.92;67.14;99235.69;4984042;28;20234;-70
2021/10/06 15:54:39;;;;;;;0.55;0.55;;;;;;;13.01;66.34;99232.91;4980050;28;20022;-73
2021/10/06 15:57:05;;;;;;;0.60;0.60;;;;;;;12.92;67.28;99235.69;4989114;28;20022;-76